Back to Top

Language: 

My Weather Underground Personal Weather Station Historical Data with Graphs...

Delerius Weather Station Historical Data
Daily Summary for January 22, 2018 Units:  Both    English   Metric
« Previous Day
Next Day »
Daily Weekly Monthly Yearly Custom
  High: Low: Average:
Temperature: 48.6 °F /  9.2 °C 42.1 °F /  5.6 °C 44.6 °F /  7 °C
Dew Point: 43.5 °F /  6.4 °C 37.5 °F /  3.1 °C 40.6 °F /  4.8 °C
Humidity: 91% 75% 86%
Wind Speed: 23.0mph /  37km/h - 7.9mph /  12.7km/h
Wind Gust: 33.0mph /  53.1km/h - -
Wind- - West
Pressure: 29.95 in /  1014.1 hPa 29.64 in /  1003.6 hPa -
Precipitation: 0.01 in /  0.25 mm    
Historical Graphs
 
 
Tabular Data for January 22, 2018
Time Temperature Dew Point Pressure Wind Wind Speed Wind Gust Humidity Rainfall Rate (Hourly) solar Conditions
00:03 44.8 °F /  7.1 °C 42.3 °F /  5.7 °C 29.64in /  1003.6hPa NW 4.0mph /  6.4km/h 6.0mph /  9.7km/h 91% 0.00in /  0mm 0 W/m2
00:08 44.6 °F /  7 °C 42.1 °F /  5.6 °C 29.64in /  1003.6hPa NW 3.0mph /  4.8km/h 7.0mph /  11.3km/h 91% 0.01in /  0.25mm 0 W/m2
00:13 44.8 °F /  7.1 °C 42.3 °F /  5.7 °C 29.64in /  1003.6hPa WNW 2.0mph /  3.2km/h 4.0mph /  6.4km/h 91% 0.01in /  0.25mm 0 W/m2
00:18 44.6 °F /  7 °C 42.1 °F /  5.6 °C 29.64in /  1003.6hPa West 6.0mph /  9.7km/h 9.0mph /  14.5km/h 91% 0.01in /  0.25mm 0 W/m2
00:23 44.8 °F /  7.1 °C 42.3 °F /  5.7 °C 29.64in /  1003.6hPa West 9.0mph /  14.5km/h 18.0mph /  29km/h 91% 0.01in /  0.25mm 0 W/m2
00:28 44.8 °F /  7.1 °C 42.3 °F /  5.7 °C 29.64in /  1003.6hPa WNW 9.0mph /  14.5km/h 12.0mph /  19.3km/h 91% 0.01in /  0.25mm 0 W/m2
00:33 44.8 °F /  7.1 °C 42.3 °F /  5.7 °C 29.64in /  1003.6hPa WNW 5.0mph /  8km/h 11.0mph /  17.7km/h 91% 0.01in /  0.25mm 0 W/m2
00:38 44.8 °F /  7.1 °C 42.3 °F /  5.7 °C 29.64in /  1003.6hPa WNW 8.0mph /  12.9km/h 13.0mph /  20.9km/h 91% 0.01in /  0.25mm 0 W/m2
00:43 44.6 °F /  7 °C 42.1 °F /  5.6 °C 29.64in /  1003.6hPa West 6.0mph /  9.7km/h 10.0mph /  16.1km/h 91% 0.01in /  0.25mm 0 W/m2
00:48 44.6 °F /  7 °C 41.8 °F /  5.4 °C 29.65in /  1003.9hPa WSW 4.0mph /  6.4km/h 8.0mph /  12.9km/h 90% 0.01in /  0.25mm 0 W/m2
00:53 44.4 °F /  6.9 °C 41.7 °F /  5.4 °C 29.65in /  1003.9hPa West 1.0mph /  1.6km/h 2.0mph /  3.2km/h 90% 0.01in /  0.25mm 0 W/m2
00:58 44.4 °F /  6.9 °C 41.7 °F /  5.4 °C 29.65in /  1003.9hPa Calm   1.0mph /  1.6km/h 90% 0.01in /  0.25mm 0 W/m2
01:03 44.2 °F /  6.8 °C 41.5 °F /  5.3 °C 29.65in /  1003.9hPa Calm   2.0mph /  3.2km/h 90% 0.01in /  0.25mm 0 W/m2
01:08 44.2 °F /  6.8 °C 41.5 °F /  5.3 °C 29.65in /  1003.9hPa West 4.0mph /  6.4km/h 8.0mph /  12.9km/h 90% 0.00in /  0mm 0 W/m2
01:13 44.1 °F /  6.7 °C 41.3 °F /  5.2 °C 29.65in /  1003.9hPa West 4.0mph /  6.4km/h 12.0mph /  19.3km/h 90% 0.00in /  0mm 0 W/m2
01:19 44.1 °F /  6.7 °C 41.0 °F /  5 °C 29.65in /  1003.9hPa West 4.0mph /  6.4km/h 8.0mph /  12.9km/h 89% 0.00in /  0mm 0 W/m2
01:24 44.1 °F /  6.7 °C 41.0 °F /  5 °C 29.65in /  1003.9hPa West 3.0mph /  4.8km/h 6.0mph /  9.7km/h 89% 0.00in /  0mm 0 W/m2
01:29 44.1 °F /  6.7 °C 41.0 °F /  5 °C 29.65in /  1003.9hPa West 4.0mph /  6.4km/h 7.0mph /  11.3km/h 89% 0.00in /  0mm 0 W/m2
01:34 43.9 °F /  6.6 °C 40.8 °F /  4.9 °C 29.65in /  1003.9hPa WNW 4.0mph /  6.4km/h 7.0mph /  11.3km/h 89% 0.00in /  0mm 0 W/m2
01:39 43.9 °F /  6.6 °C 40.8 °F /  4.9 °C 29.64in /  1003.6hPa West 5.0mph /  8km/h 7.0mph /  11.3km/h 89% 0.00in /  0mm 0 W/m2
01:44 43.7 °F /  6.5 °C 40.4 °F /  4.7 °C 29.64in /  1003.6hPa WNW 5.0mph /  8km/h 8.0mph /  12.9km/h 88% 0.00in /  0mm 0 W/m2
01:49 43.7 °F /  6.5 °C 40.7 °F /  4.8 °C 29.64in /  1003.6hPa WNW 3.0mph /  4.8km/h 7.0mph /  11.3km/h 89% 0.00in /  0mm 0 W/m2
01:54 43.7 °F /  6.5 °C 40.7 °F /  4.8 °C 29.64in /  1003.6hPa WNW 7.0mph /  11.3km/h 11.0mph /  17.7km/h 89% 0.00in /  0mm 0 W/m2
01:59 43.9 °F /  6.6 °C 40.8 °F /  4.9 °C 29.64in /  1003.6hPa WNW 8.0mph /  12.9km/h 13.0mph /  20.9km/h 89% 0.00in /  0mm 0 W/m2
02:04 43.9 °F /  6.6 °C 40.8 °F /  4.9 °C 29.64in /  1003.6hPa West 7.0mph /  11.3km/h 14.0mph /  22.5km/h 89% 0.00in /  0mm 0 W/m2
02:09 43.9 °F /  6.6 °C 40.8 °F /  4.9 °C 29.64in /  1003.6hPa West 5.0mph /  8km/h 9.0mph /  14.5km/h 89% 0.00in /  0mm 0 W/m2
02:14 43.9 °F /  6.6 °C 40.8 °F /  4.9 °C 29.64in /  1003.6hPa WNW 4.0mph /  6.4km/h 9.0mph /  14.5km/h 89% 0.00in /  0mm 0 W/m2
02:19 43.7 °F /  6.5 °C 40.7 °F /  4.8 °C 29.64in /  1003.6hPa WNW 3.0mph /  4.8km/h 6.0mph /  9.7km/h 89% 0.00in /  0mm 0 W/m2
02:24 43.5 °F /  6.4 °C 40.5 °F /  4.7 °C 29.65in /  1003.9hPa WNW 3.0mph /  4.8km/h 5.0mph /  8km/h 89% 0.00in /  0mm 0 W/m2
02:29 43.3 °F /  6.3 °C 40.3 °F /  4.6 °C 29.65in /  1003.9hPa WNW 4.0mph /  6.4km/h 7.0mph /  11.3km/h 89% 0.00in /  0mm 0 W/m2
02:39 43.0 °F /  6.1 °C 40.2 °F /  4.6 °C 29.65in /  1003.9hPa WNW 4.0mph /  6.4km/h 7.0mph /  11.3km/h 90% 0.00in /  0mm 0 W/m2
02:44 43.0 °F /  6.1 °C 40.2 °F /  4.6 °C 29.65in /  1003.9hPa WNW 4.0mph /  6.4km/h 6.0mph /  9.7km/h 90% 0.00in /  0mm 0 W/m2
02:49 42.8 °F /  6 °C 40.1 °F /  4.5 °C 29.65in /  1003.9hPa WNW 5.0mph /  8km/h 11.0mph /  17.7km/h 90% 0.00in /  0mm 0 W/m2
02:54 42.8 °F /  6 °C 40.1 °F /  4.5 °C 29.65in /  1003.9hPa NW 7.0mph /  11.3km/h 10.0mph /  16.1km/h 90% 0.00in /  0mm 0 W/m2
02:59 42.8 °F /  6 °C 40.1 °F /  4.5 °C 29.65in /  1003.9hPa WNW 6.0mph /  9.7km/h 8.0mph /  12.9km/h 90% 0.00in /  0mm 0 W/m2
03:04 42.8 °F /  6 °C 40.1 °F /  4.5 °C 29.66in /  1004.3hPa WNW 5.0mph /  8km/h 8.0mph /  12.9km/h 90% 0.00in /  0mm 0 W/m2
03:09 42.8 °F /  6 °C 40.1 °F /  4.5 °C 29.66in /  1004.3hPa WNW 2.0mph /  3.2km/h 6.0mph /  9.7km/h 90% 0.00in /  0mm 0 W/m2
03:14 42.8 °F /  6 °C 40.1 °F /  4.5 °C 29.67in /  1004.6hPa West 3.0mph /  4.8km/h 5.0mph /  8km/h 90% 0.00in /  0mm 0 W/m2
03:19 42.6 °F /  5.9 °C 39.6 °F /  4.2 °C 29.67in /  1004.6hPa WNW 5.0mph /  8km/h 9.0mph /  14.5km/h 89% 0.00in /  0mm 0 W/m2
03:24 42.6 °F /  5.9 °C 39.9 °F /  4.4 °C 29.66in /  1004.3hPa WNW 6.0mph /  9.7km/h 11.0mph /  17.7km/h 90% 0.00in /  0mm 0 W/m2
03:29 42.8 °F /  6 °C 40.1 °F /  4.5 °C 29.66in /  1004.3hPa WNW 7.0mph /  11.3km/h 11.0mph /  17.7km/h 90% 0.00in /  0mm 0 W/m2
03:34 42.8 °F /  6 °C 39.8 °F /  4.3 °C 29.66in /  1004.3hPa WNW 8.0mph /  12.9km/h 12.0mph /  19.3km/h 89% 0.00in /  0mm 0 W/m2
03:39 43.0 °F /  6.1 °C 40.0 °F /  4.4 °C 29.66in /  1004.3hPa WNW 9.0mph /  14.5km/h 15.0mph /  24.1km/h 89% 0.00in /  0mm 0 W/m2
03:44 43.0 °F /  6.1 °C 40.0 °F /  4.4 °C 29.66in /  1004.3hPa WNW 5.0mph /  8km/h 9.0mph /  14.5km/h 89% 0.00in /  0mm 0 W/m2
03:54 43.2 °F /  6.2 °C 39.8 °F /  4.3 °C 29.67in /  1004.6hPa West 4.0mph /  6.4km/h 9.0mph /  14.5km/h 88% 0.00in /  0mm 0 W/m2
03:59 43.2 °F /  6.2 °C 39.8 °F /  4.3 °C 29.67in /  1004.6hPa WNW 3.0mph /  4.8km/h 6.0mph /  9.7km/h 88% 0.00in /  0mm 0 W/m2
04:05 43.2 °F /  6.2 °C 39.8 °F /  4.3 °C 29.67in /  1004.6hPa WNW 4.0mph /  6.4km/h 9.0mph /  14.5km/h 88% 0.00in /  0mm 0 W/m2
04:09 43.2 °F /  6.2 °C 39.8 °F /  4.3 °C 29.67in /  1004.6hPa West 4.0mph /  6.4km/h 11.0mph /  17.7km/h 88% 0.00in /  0mm 0 W/m2
04:14 43.2 °F /  6.2 °C 39.8 °F /  4.3 °C 29.67in /  1004.6hPa West 5.0mph /  8km/h 8.0mph /  12.9km/h 88% 0.00in /  0mm 0 W/m2
04:20 43.2 °F /  6.2 °C 39.8 °F /  4.3 °C 29.67in /  1004.6hPa WSW 3.0mph /  4.8km/h 9.0mph /  14.5km/h 88% 0.00in /  0mm 0 W/m2
04:25 43.2 °F /  6.2 °C 39.8 °F /  4.3 °C 29.67in /  1004.6hPa WSW 1.0mph /  1.6km/h 6.0mph /  9.7km/h 88% 0.00in /  0mm 0 W/m2
04:30 43.2 °F /  6.2 °C 39.8 °F /  4.3 °C 29.67in /  1004.6hPa WNW 4.0mph /  6.4km/h 9.0mph /  14.5km/h 88% 0.00in /  0mm 0 W/m2
04:35 43.2 °F /  6.2 °C 39.8 °F /  4.3 °C 29.67in /  1004.6hPa WNW 5.0mph /  8km/h 10.0mph /  16.1km/h 88% 0.00in /  0mm 0 W/m2
04:40 43.2 °F /  6.2 °C 39.8 °F /  4.3 °C 29.67in /  1004.6hPa West 5.0mph /  8km/h 8.0mph /  12.9km/h 88% 0.00in /  0mm 0 W/m2
04:45 43.2 °F /  6.2 °C 39.8 °F /  4.3 °C 29.67in /  1004.6hPa West 6.0mph /  9.7km/h 9.0mph /  14.5km/h 88% 0.00in /  0mm 0 W/m2
04:50 43.2 °F /  6.2 °C 39.8 °F /  4.3 °C 29.67in /  1004.6hPa WNW 6.0mph /  9.7km/h 11.0mph /  17.7km/h 88% 0.00in /  0mm 0 W/m2
04:55 43.2 °F /  6.2 °C 39.8 °F /  4.3 °C 29.67in /  1004.6hPa West 7.0mph /  11.3km/h 10.0mph /  16.1km/h 88% 0.00in /  0mm 0 W/m2
05:00 43.0 °F /  6.1 °C 39.7 °F /  4.3 °C 29.68in /  1005hPa West 4.0mph /  6.4km/h 7.0mph /  11.3km/h 88% 0.00in /  0mm 0 W/m2
05:05 43.0 °F /  6.1 °C 39.7 °F /  4.3 °C 29.68in /  1005hPa WSW 1.0mph /  1.6km/h 5.0mph /  8km/h 88% 0.00in /  0mm 0 W/m2
05:15 43.0 °F /  6.1 °C 39.7 °F /  4.3 °C 29.68in /  1005hPa Calm   1.0mph /  1.6km/h 88% 0.00in /  0mm 0 W/m2
05:20 43.0 °F /  6.1 °C 39.7 °F /  4.3 °C 29.68in /  1005hPa West 1.0mph /  1.6km/h 2.0mph /  3.2km/h 88% 0.00in /  0mm 0 W/m2
05:25 43.0 °F /  6.1 °C 39.7 °F /  4.3 °C 29.68in /  1005hPa WSW 1.0mph /  1.6km/h 4.0mph /  6.4km/h 88% 0.00in /  0mm 0 W/m2
05:35 43.0 °F /  6.1 °C 40.0 °F /  4.4 °C 29.68in /  1005hPa WNW 6.0mph /  9.7km/h 11.0mph /  17.7km/h 89% 0.00in /  0mm 0 W/m2
05:40 43.2 °F /  6.2 °C 40.1 °F /  4.5 °C 29.68in /  1005hPa WNW 8.0mph /  12.9km/h 12.0mph /  19.3km/h 89% 0.00in /  0mm 0 W/m2
05:45 43.2 °F /  6.2 °C 40.1 °F /  4.5 °C 29.68in /  1005hPa West 8.0mph /  12.9km/h 12.0mph /  19.3km/h 89% 0.00in /  0mm 0 W/m2
05:50 43.3 °F /  6.3 °C 40.3 °F /  4.6 °C 29.68in /  1005hPa West 8.0mph /  12.9km/h 11.0mph /  17.7km/h 89% 0.00in /  0mm 0 W/m2
05:55 43.3 °F /  6.3 °C 40.3 °F /  4.6 °C 29.69in /  1005.3hPa West 8.0mph /  12.9km/h 14.0mph /  22.5km/h 89% 0.00in /  0mm 0 W/m2
06:00 43.3 °F /  6.3 °C 40.0 °F /  4.4 °C 29.69in /  1005.3hPa West 6.0mph /  9.7km/h 9.0mph /  14.5km/h 88% 0.00in /  0mm 0 W/m2
06:08 43.3 °F /  6.3 °C 40.3 °F /  4.6 °C 29.69in /  1005.3hPa West 7.0mph /  11.3km/h 13.0mph /  20.9km/h 89% 0.00in /  0mm 0 W/m2
06:13 43.3 °F /  6.3 °C 40.0 °F /  4.4 °C 29.69in /  1005.3hPa West 5.0mph /  8km/h 8.0mph /  12.9km/h 88% 0.00in /  0mm 0 W/m2
06:18 43.3 °F /  6.3 °C 40.0 °F /  4.4 °C 29.69in /  1005.3hPa West 2.0mph /  3.2km/h 6.0mph /  9.7km/h 88% 0.00in /  0mm 0 W/m2
06:23 43.2 °F /  6.2 °C 39.8 °F /  4.3 °C 29.69in /  1005.3hPa West 5.0mph /  8km/h 8.0mph /  12.9km/h 88% 0.00in /  0mm 0 W/m2
06:28 43.2 °F /  6.2 °C 40.1 °F /  4.5 °C 29.69in /  1005.3hPa WSW 3.0mph /  4.8km/h 6.0mph /  9.7km/h 89% 0.00in /  0mm 0 W/m2
06:33 43.2 °F /  6.2 °C 39.8 °F /  4.3 °C 29.70in /  1005.6hPa WSW 2.0mph /  3.2km/h 6.0mph /  9.7km/h 88% 0.00in /  0mm 0 W/m2
06:38 43.0 °F /  6.1 °C 40.0 °F /  4.4 °C 29.70in /  1005.6hPa WSW 2.0mph /  3.2km/h 6.0mph /  9.7km/h 89% 0.00in /  0mm 0 W/m2
06:48 43.0 °F /  6.1 °C 40.0 °F /  4.4 °C 29.70in /  1005.6hPa Calm   1.0mph /  1.6km/h 89% 0.00in /  0mm 0 W/m2
06:53 42.8 °F /  6 °C 39.5 °F /  4.2 °C 29.70in /  1005.6hPa Calm   2.0mph /  3.2km/h 88% 0.00in /  0mm 0 W/m2
06:58 42.6 °F /  5.9 °C 39.6 °F /  4.2 °C 29.70in /  1005.6hPa West 3.0mph /  4.8km/h 7.0mph /  11.3km/h 89% 0.00in /  0mm 0 W/m2
07:03 42.4 °F /  5.8 °C 39.4 °F /  4.1 °C 29.70in /  1005.6hPa West 5.0mph /  8km/h 7.0mph /  11.3km/h 89% 0.00in /  0mm 0 W/m2
07:08 42.4 °F /  5.8 °C 39.4 °F /  4.1 °C 29.70in /  1005.6hPa WSW 5.0mph /  8km/h 9.0mph /  14.5km/h 89% 0.00in /  0mm 0 W/m2
07:18 42.4 °F /  5.8 °C 39.4 °F /  4.1 °C 29.71in /  1006hPa West 5.0mph /  8km/h 9.0mph /  14.5km/h 89% 0.00in /  0mm 0 W/m2
07:28 42.6 °F /  5.9 °C 39.6 °F /  4.2 °C 29.71in /  1006hPa West 3.0mph /  4.8km/h 6.0mph /  9.7km/h 89% 0.00in /  0mm 0 W/m2
07:33 42.6 °F /  5.9 °C 39.6 °F /  4.2 °C 29.71in /  1006hPa WSW 4.0mph /  6.4km/h 8.0mph /  12.9km/h 89% 0.00in /  0mm 0 W/m2
07:38 42.6 °F /  5.9 °C 39.6 °F /  4.2 °C 29.71in /  1006hPa West 4.0mph /  6.4km/h 9.0mph /  14.5km/h 89% 0.00in /  0mm 0 W/m2
07:43 42.6 °F /  5.9 °C 39.6 °F /  4.2 °C 29.71in /  1006hPa West 4.0mph /  6.4km/h 8.0mph /  12.9km/h 89% 0.00in /  0mm 0 W/m2
07:53 42.6 °F /  5.9 °C 39.9 °F /  4.4 °C 29.72in /  1006.3hPa West 3.0mph /  4.8km/h 6.0mph /  9.7km/h 90% 0.00in /  0mm 0 W/m2
07:59 42.6 °F /  5.9 °C 39.9 °F /  4.4 °C 29.72in /  1006.3hPa WSW 2.0mph /  3.2km/h 7.0mph /  11.3km/h 90% 0.00in /  0mm 0 W/m2
08:09 42.4 °F /  5.8 °C 39.4 °F /  4.1 °C 29.73in /  1006.7hPa Calm   2.0mph /  3.2km/h 89% 0.00in /  0mm 5 W/m2
08:14 42.3 °F /  5.7 °C 39.2 °F /  4 °C 29.73in /  1006.7hPa WSW 3.0mph /  4.8km/h 9.0mph /  14.5km/h 89% 0.00in /  0mm 9 W/m2
08:19 42.3 °F /  5.7 °C 39.5 °F /  4.2 °C 29.73in /  1006.7hPa Calm   1.0mph /  1.6km/h 90% 0.00in /  0mm 12 W/m2
08:24 42.3 °F /  5.7 °C 39.5 °F /  4.2 °C 29.73in /  1006.7hPa West 2.0mph /  3.2km/h 4.0mph /  6.4km/h 90% 0.00in /  0mm 16 W/m2
08:29 42.1 °F /  5.6 °C 39.4 °F /  4.1 °C 29.73in /  1006.7hPa Calm   1.0mph /  1.6km/h 90% 0.00in /  0mm 23 W/m2
08:34 42.3 °F /  5.7 °C 39.5 °F /  4.2 °C 29.73in /  1006.7hPa West 3.0mph /  4.8km/h 9.0mph /  14.5km/h 90% 0.00in /  0mm 32 W/m2
08:44 42.6 °F /  5.9 °C 40.2 °F /  4.6 °C 29.73in /  1006.7hPa WNW 8.0mph /  12.9km/h 12.0mph /  19.3km/h 91% 0.00in /  0mm 47 W/m2
08:54 43.3 °F /  6.3 °C 40.6 °F /  4.8 °C 29.74in /  1007hPa WNW 7.0mph /  11.3km/h 12.0mph /  19.3km/h 90% 0.00in /  0mm 35 W/m2
08:59 43.3 °F /  6.3 °C 40.6 °F /  4.8 °C 29.74in /  1007hPa WNW 8.0mph /  12.9km/h 12.0mph /  19.3km/h 90% 0.00in /  0mm 44 W/m2
09:04 43.5 °F /  6.4 °C 40.8 °F /  4.9 °C 29.74in /  1007hPa West 6.0mph /  9.7km/h 10.0mph /  16.1km/h 90% 0.00in /  0mm 56 W/m2
09:09 43.7 °F /  6.5 °C 41.0 °F /  5 °C 29.75in /  1007.3hPa West 9.0mph /  14.5km/h 15.0mph /  24.1km/h 90% 0.00in /  0mm 37 W/m2
09:14 43.9 °F /  6.6 °C 40.8 °F /  4.9 °C 29.75in /  1007.3hPa West 7.0mph /  11.3km/h 13.0mph /  20.9km/h 89% 0.00in /  0mm 32 W/m2
09:19 43.9 °F /  6.6 °C 40.8 °F /  4.9 °C 29.75in /  1007.3hPa WNW 8.0mph /  12.9km/h 12.0mph /  19.3km/h 89% 0.00in /  0mm 35 W/m2
09:24 43.9 °F /  6.6 °C 40.8 °F /  4.9 °C 29.75in /  1007.3hPa WNW 6.0mph /  9.7km/h 10.0mph /  16.1km/h 89% 0.00in /  0mm 49 W/m2
09:29 43.9 °F /  6.6 °C 40.8 °F /  4.9 °C 29.76in /  1007.7hPa WNW 8.0mph /  12.9km/h 11.0mph /  17.7km/h 89% 0.00in /  0mm 98 W/m2
09:34 44.1 °F /  6.7 °C 41.0 °F /  5 °C 29.76in /  1007.7hPa West 5.0mph /  8km/h 10.0mph /  16.1km/h 89% 0.00in /  0mm 151 W/m2
09:39 44.4 °F /  6.9 °C 41.4 °F /  5.2 °C 29.76in /  1007.7hPa West 8.0mph /  12.9km/h 14.0mph /  22.5km/h 89% 0.00in /  0mm 156 W/m2
09:44 44.8 °F /  7.1 °C 41.7 °F /  5.4 °C 29.76in /  1007.7hPa WNW 8.0mph /  12.9km/h 14.0mph /  22.5km/h 89% 0.00in /  0mm 132 W/m2
09:49 45.0 °F /  7.2 °C 41.6 °F /  5.3 °C 29.75in /  1007.3hPa WNW 13.0mph /  20.9km/h 21.0mph /  33.8km/h 88% 0.00in /  0mm 156 W/m2
09:54 45.1 °F /  7.3 °C 41.5 °F /  5.3 °C 29.75in /  1007.3hPa WNW 12.0mph /  19.3km/h 20.0mph /  32.2km/h 87% 0.00in /  0mm 134 W/m2
09:59 45.1 °F /  7.3 °C 41.5 °F /  5.3 °C 29.75in /  1007.3hPa WNW 13.0mph /  20.9km/h 23.0mph /  37km/h 87% 0.00in /  0mm 130 W/m2
10:04 45.1 °F /  7.3 °C 41.5 °F /  5.3 °C 29.75in /  1007.3hPa West 13.0mph /  20.9km/h 23.0mph /  37km/h 87% 0.00in /  0mm 114 W/m2
10:09 45.1 °F /  7.3 °C 41.5 °F /  5.3 °C 29.75in /  1007.3hPa WNW 10.0mph /  16.1km/h 19.0mph /  30.6km/h 87% 0.00in /  0mm 118 W/m2
10:14 45.0 °F /  7.2 °C 41.3 °F /  5.2 °C 29.75in /  1007.3hPa WNW 11.0mph /  17.7km/h 19.0mph /  30.6km/h 87% 0.00in /  0mm 125 W/m2
10:19 45.0 °F /  7.2 °C 41.3 °F /  5.2 °C 29.76in /  1007.7hPa WNW 13.0mph /  20.9km/h 23.0mph /  37km/h 87% 0.00in /  0mm 113 W/m2
10:24 45.0 °F /  7.2 °C 41.3 °F /  5.2 °C 29.76in /  1007.7hPa WNW 12.0mph /  19.3km/h 20.0mph /  32.2km/h 87% 0.00in /  0mm 130 W/m2
10:29 45.0 °F /  7.2 °C 41.3 °F /  5.2 °C 29.77in /  1008hPa WNW 13.0mph /  20.9km/h 19.0mph /  30.6km/h 87% 0.00in /  0mm 146 W/m2
10:34 45.0 °F /  7.2 °C 41.3 °F /  5.2 °C 29.77in /  1008hPa WNW 15.0mph /  24.1km/h 23.0mph /  37km/h 87% 0.00in /  0mm 132 W/m2
10:39 45.1 °F /  7.3 °C 41.5 °F /  5.3 °C 29.77in /  1008hPa West 17.0mph /  27.4km/h 26.0mph /  41.8km/h 87% 0.00in /  0mm 111 W/m2
10:44 45.1 °F /  7.3 °C 41.5 °F /  5.3 °C 29.77in /  1008hPa WNW 17.0mph /  27.4km/h 26.0mph /  41.8km/h 87% 0.00in /  0mm 104 W/m2
10:49 45.1 °F /  7.3 °C 41.5 °F /  5.3 °C 29.76in /  1007.7hPa WNW 15.0mph /  24.1km/h 23.0mph /  37km/h 87% 0.00in /  0mm 120 W/m2
10:55 45.1 °F /  7.3 °C 41.5 °F /  5.3 °C 29.77in /  1008hPa WNW 14.0mph /  22.5km/h 22.0mph /  35.4km/h 87% 0.00in /  0mm 171 W/m2
11:00 45.3 °F /  7.4 °C 41.7 °F /  5.4 °C 29.77in /  1008hPa WNW 13.0mph /  20.9km/h 20.0mph /  32.2km/h 87% 0.00in /  0mm 142 W/m2
11:05 45.3 °F /  7.4 °C 41.7 °F /  5.4 °C 29.77in /  1008hPa WNW 13.0mph /  20.9km/h 23.0mph /  37km/h 87% 0.00in /  0mm 111 W/m2
11:10 45.3 °F /  7.4 °C 41.4 °F /  5.2 °C 29.77in /  1008hPa WNW 17.0mph /  27.4km/h 26.0mph /  41.8km/h 86% 0.00in /  0mm 98 W/m2
11:15 45.3 °F /  7.4 °C 41.4 °F /  5.2 °C 29.77in /  1008hPa West 17.0mph /  27.4km/h 26.0mph /  41.8km/h 86% 0.00in /  0mm 167 W/m2
11:20 45.5 °F /  7.5 °C 41.6 °F /  5.3 °C 29.77in /  1008hPa WNW 18.0mph /  29km/h 26.0mph /  41.8km/h 86% 0.00in /  0mm 288 W/m2
11:25 46.0 °F /  7.8 °C 42.1 °F /  5.6 °C 29.77in /  1008hPa West 17.0mph /  27.4km/h 29.0mph /  46.7km/h 86% 0.00in /  0mm 353 W/m2
11:30 46.2 °F /  7.9 °C 42.0 °F /  5.6 °C 29.77in /  1008hPa WNW 19.0mph /  30.6km/h 29.0mph /  46.7km/h 85% 0.00in /  0mm 239 W/m2
11:35 46.6 °F /  8.1 °C 42.0 °F /  5.6 °C 29.77in /  1008hPa West 23.0mph /  37km/h 33.0mph /  53.1km/h 84% 0.00in /  0mm 251 W/m2
11:40 46.8 °F /  8.2 °C 42.2 °F /  5.7 °C 29.78in /  1008.4hPa West 19.0mph /  30.6km/h 30.0mph /  48.3km/h 84% 0.00in /  0mm 225 W/m2
11:45 46.8 °F /  8.2 °C 42.2 °F /  5.7 °C 29.77in /  1008hPa West 17.0mph /  27.4km/h 26.0mph /  41.8km/h 84% 0.00in /  0mm 160 W/m2
11:50 46.8 °F /  8.2 °C 42.2 °F /  5.7 °C 29.77in /  1008hPa WNW 18.0mph /  29km/h 26.0mph /  41.8km/h 84% 0.00in /  0mm 148 W/m2
11:55 46.6 °F /  8.1 °C 42.0 °F /  5.6 °C 29.78in /  1008.4hPa WNW 19.0mph /  30.6km/h 26.0mph /  41.8km/h 84% 0.00in /  0mm 172 W/m2
12:00 46.6 °F /  8.1 °C 42.0 °F /  5.6 °C 29.78in /  1008.4hPa West 20.0mph /  32.2km/h 28.0mph /  45.1km/h 84% 0.00in /  0mm 339 W/m2
12:05 46.6 °F /  8.1 °C 42.0 °F /  5.6 °C 29.78in /  1008.4hPa WNW 18.0mph /  29km/h 25.0mph /  40.2km/h 84% 0.00in /  0mm 134 W/m2
12:10 46.4 °F /  8 °C 41.8 °F /  5.4 °C 29.78in /  1008.4hPa West 16.0mph /  25.7km/h 26.0mph /  41.8km/h 84% 0.00in /  0mm 123 W/m2
12:15 46.2 °F /  7.9 °C 42.0 °F /  5.6 °C 29.80in /  1009hPa West 16.0mph /  25.7km/h 23.0mph /  37km/h 85% 0.00in /  0mm 105 W/m2
12:20 46.2 °F /  7.9 °C 42.0 °F /  5.6 °C 29.80in /  1009hPa West 16.0mph /  25.7km/h 23.0mph /  37km/h 85% 0.00in /  0mm 81 W/m2
12:25 46.0 °F /  7.8 °C 41.8 °F /  5.4 °C 29.81in /  1009.4hPa WNW 14.0mph /  22.5km/h 25.0mph /  40.2km/h 85% 0.00in /  0mm 70 W/m2
12:35 46.0 °F /  7.8 °C 42.1 °F /  5.6 °C 29.81in /  1009.4hPa WNW 9.0mph /  14.5km/h 16.0mph /  25.7km/h 86% 0.00in /  0mm 104 W/m2
12:40 46.0 °F /  7.8 °C 42.1 °F /  5.6 °C 29.82in /  1009.7hPa West 10.0mph /  16.1km/h 18.0mph /  29km/h 86% 0.00in /  0mm 114 W/m2
12:45 46.0 °F /  7.8 °C 42.1 °F /  5.6 °C 29.82in /  1009.7hPa West 11.0mph /  17.7km/h 18.0mph /  29km/h 86% 0.00in /  0mm 97 W/m2
12:50 46.2 °F /  7.9 °C 42.6 °F /  5.9 °C 29.83in /  1010hPa West 11.0mph /  17.7km/h 22.0mph /  35.4km/h 87% 0.00in /  0mm 135 W/m2
12:55 46.2 °F /  7.9 °C 42.3 °F /  5.7 °C 29.83in /  1010hPa West 13.0mph /  20.9km/h 19.0mph /  30.6km/h 86% 0.00in /  0mm 137 W/m2
13:00 46.2 °F /  7.9 °C 42.3 °F /  5.7 °C 29.83in /  1010hPa West 13.0mph /  20.9km/h 19.0mph /  30.6km/h 86% 0.00in /  0mm 118 W/m2
13:05 46.2 °F /  7.9 °C 42.3 °F /  5.7 °C 29.84in /  1010.4hPa WNW 12.0mph /  19.3km/h 18.0mph /  29km/h 86% 0.00in /  0mm 102 W/m2
13:11 46.2 °F /  7.9 °C 42.6 °F /  5.9 °C 29.84in /  1010.4hPa West 10.0mph /  16.1km/h 15.0mph /  24.1km/h 87% 0.00in /  0mm 118 W/m2
13:16 46.2 °F /  7.9 °C 42.6 °F /  5.9 °C 29.84in /  1010.4hPa West 9.0mph /  14.5km/h 14.0mph /  22.5km/h 87% 0.00in /  0mm 109 W/m2
13:21 46.2 °F /  7.9 °C 42.6 °F /  5.9 °C 29.85in /  1010.7hPa West 10.0mph /  16.1km/h 15.0mph /  24.1km/h 87% 0.00in /  0mm 76 W/m2
13:31 46.6 °F /  8.1 °C 43.2 °F /  6.2 °C 29.85in /  1010.7hPa WNW 8.0mph /  12.9km/h 13.0mph /  20.9km/h 88% 0.00in /  0mm 385 W/m2
13:36 46.9 °F /  8.3 °C 43.3 °F /  6.3 °C 29.85in /  1010.7hPa WNW 11.0mph /  17.7km/h 20.0mph /  32.2km/h 87% 0.00in /  0mm 271 W/m2
13:41 47.1 °F /  8.4 °C 43.4 °F /  6.3 °C 29.85in /  1010.7hPa WNW 12.0mph /  19.3km/h 20.0mph /  32.2km/h 87% 0.00in /  0mm 155 W/m2
13:46 47.1 °F /  8.4 °C 43.1 °F /  6.2 °C 29.85in /  1010.7hPa WNW 9.0mph /  14.5km/h 16.0mph /  25.7km/h 86% 0.00in /  0mm 306 W/m2
13:51 47.5 °F /  8.6 °C 43.5 °F /  6.4 °C 29.85in /  1010.7hPa WNW 9.0mph /  14.5km/h 15.0mph /  24.1km/h 86% 0.00in /  0mm 239 W/m2
14:01 47.7 °F /  8.7 °C 43.4 °F /  6.3 °C 29.85in /  1010.7hPa West 10.0mph /  16.1km/h 16.0mph /  25.7km/h 85% 0.00in /  0mm 251 W/m2
14:06 47.8 °F /  8.8 °C 43.5 °F /  6.4 °C 29.86in /  1011.1hPa WNW 11.0mph /  17.7km/h 14.0mph /  22.5km/h 85% 0.00in /  0mm 371 W/m2
14:11 47.8 °F /  8.8 °C 43.2 °F /  6.2 °C 29.86in /  1011.1hPa WNW 10.0mph /  16.1km/h 16.0mph /  25.7km/h 84% 0.00in /  0mm 135 W/m2
14:16 47.8 °F /  8.8 °C 43.2 °F /  6.2 °C 29.86in /  1011.1hPa West 10.0mph /  16.1km/h 15.0mph /  24.1km/h 84% 0.00in /  0mm 123 W/m2
14:21 48.0 °F /  8.9 °C 43.4 °F /  6.3 °C 29.86in /  1011.1hPa West 15.0mph /  24.1km/h 20.0mph /  32.2km/h 84% 0.00in /  0mm 339 W/m2
14:31 48.6 °F /  9.2 °C 43.3 °F /  6.3 °C 29.86in /  1011.1hPa WNW 13.0mph /  20.9km/h 20.0mph /  32.2km/h 82% 0.00in /  0mm 148 W/m2
14:36 48.6 °F /  9.2 °C 43.3 °F /  6.3 °C 29.87in /  1011.4hPa West 15.0mph /  24.1km/h 20.0mph /  32.2km/h 82% 0.00in /  0mm 79 W/m2
14:41 48.0 °F /  8.9 °C 42.8 °F /  6 °C 29.87in /  1011.4hPa West 13.0mph /  20.9km/h 20.0mph /  32.2km/h 82% 0.00in /  0mm 47 W/m2
14:46 47.8 °F /  8.8 °C 42.9 °F /  6.1 °C 29.87in /  1011.4hPa West 11.0mph /  17.7km/h 20.0mph /  32.2km/h 83% 0.00in /  0mm 200 W/m2
14:51 47.8 °F /  8.8 °C 42.9 °F /  6.1 °C 29.87in /  1011.4hPa West 11.0mph /  17.7km/h 18.0mph /  29km/h 83% 0.00in /  0mm 148 W/m2
14:56 47.7 °F /  8.7 °C 42.4 °F /  5.8 °C 29.87in /  1011.4hPa West 15.0mph /  24.1km/h 23.0mph /  37km/h 82% 0.00in /  0mm 79 W/m2
15:01 47.5 °F /  8.6 °C 42.3 °F /  5.7 °C 29.87in /  1011.4hPa WNW 12.0mph /  19.3km/h 20.0mph /  32.2km/h 82% 0.00in /  0mm 81 W/m2
15:06 47.3 °F /  8.5 °C 42.1 °F /  5.6 °C 29.88in /  1011.7hPa West 13.0mph /  20.9km/h 23.0mph /  37km/h 82% 0.00in /  0mm 81 W/m2
15:11 47.1 °F /  8.4 °C 41.9 °F /  5.5 °C 29.88in /  1011.7hPa West 12.0mph /  19.3km/h 20.0mph /  32.2km/h 82% 0.00in /  0mm 44 W/m2
15:16 46.9 °F /  8.3 °C 42.0 °F /  5.6 °C 29.88in /  1011.7hPa West 12.0mph /  19.3km/h 16.0mph /  25.7km/h 83% 0.00in /  0mm 54 W/m2
15:21 46.9 °F /  8.3 °C 42.0 °F /  5.6 °C 29.88in /  1011.7hPa West 12.0mph /  19.3km/h 18.0mph /  29km/h 83% 0.00in /  0mm 65 W/m2
15:26 46.8 °F /  8.2 °C 42.2 °F /  5.7 °C 29.89in /  1012.1hPa West 9.0mph /  14.5km/h 15.0mph /  24.1km/h 84% 0.00in /  0mm 53 W/m2
15:31 46.8 °F /  8.2 °C 42.2 °F /  5.7 °C 29.89in /  1012.1hPa West 10.0mph /  16.1km/h 16.0mph /  25.7km/h 84% 0.00in /  0mm 32 W/m2
15:36 46.6 °F /  8.1 °C 42.3 °F /  5.7 °C 29.89in /  1012.1hPa West 9.0mph /  14.5km/h 15.0mph /  24.1km/h 85% 0.00in /  0mm 32 W/m2
15:41 46.4 °F /  8 °C 42.1 °F /  5.6 °C 29.89in /  1012.1hPa West 9.0mph /  14.5km/h 15.0mph /  24.1km/h 85% 0.00in /  0mm 39 W/m2
15:46 46.2 °F /  7.9 °C 42.0 °F /  5.6 °C 29.89in /  1012.1hPa West 11.0mph /  17.7km/h 16.0mph /  25.7km/h 85% 0.00in /  0mm 42 W/m2
15:51 46.0 °F /  7.8 °C 41.8 °F /  5.4 °C 29.89in /  1012.1hPa West 9.0mph /  14.5km/h 15.0mph /  24.1km/h 85% 0.00in /  0mm 33 W/m2
15:56 45.9 °F /  7.7 °C 41.6 °F /  5.3 °C 29.89in /  1012.1hPa West 13.0mph /  20.9km/h 21.0mph /  33.8km/h 85% 0.00in /  0mm 21 W/m2
16:01 45.7 °F /  7.6 °C 41.4 °F /  5.2 °C 29.90in /  1012.4hPa West 14.0mph /  22.5km/h 20.0mph /  32.2km/h 85% 0.00in /  0mm 14 W/m2
16:06 45.7 °F /  7.6 °C 41.4 °F /  5.2 °C 29.90in /  1012.4hPa West 13.0mph /  20.9km/h 23.0mph /  37km/h 85% 0.00in /  0mm 11 W/m2
16:12 45.7 °F /  7.6 °C 41.1 °F /  5.1 °C 29.90in /  1012.4hPa West 12.0mph /  19.3km/h 19.0mph /  30.6km/h 84% 0.00in /  0mm 7 W/m2
16:17 45.7 °F /  7.6 °C 41.1 °F /  5.1 °C 29.90in /  1012.4hPa West 10.0mph /  16.1km/h 14.0mph /  22.5km/h 84% 0.00in /  0mm 5 W/m2
16:22 45.7 °F /  7.6 °C 41.1 °F /  5.1 °C 29.91in /  1012.8hPa West 9.0mph /  14.5km/h 14.0mph /  22.5km/h 84% 0.00in /  0mm 5 W/m2
16:27 45.7 °F /  7.6 °C 41.1 °F /  5.1 °C 29.91in /  1012.8hPa West 10.0mph /  16.1km/h 14.0mph /  22.5km/h 84% 0.00in /  0mm 0 W/m2
16:32 45.7 °F /  7.6 °C 41.1 °F /  5.1 °C 29.91in /  1012.8hPa West 7.0mph /  11.3km/h 12.0mph /  19.3km/h 84% 0.00in /  0mm 0 W/m2
16:37 45.7 °F /  7.6 °C 41.1 °F /  5.1 °C 29.91in /  1012.8hPa WSW 6.0mph /  9.7km/h 10.0mph /  16.1km/h 84% 0.00in /  0mm 0 W/m2
16:42 45.5 °F /  7.5 °C 40.9 °F /  4.9 °C 29.91in /  1012.8hPa WSW 4.0mph /  6.4km/h 9.0mph /  14.5km/h 84% 0.00in /  0mm 0 W/m2
16:47 45.3 °F /  7.4 °C 41.1 °F /  5.1 °C 29.91in /  1012.8hPa WSW 8.0mph /  12.9km/h 13.0mph /  20.9km/h 85% 0.00in /  0mm 0 W/m2
16:52 45.3 °F /  7.4 °C 40.8 °F /  4.9 °C 29.91in /  1012.8hPa WSW 7.0mph /  11.3km/h 10.0mph /  16.1km/h 84% 0.00in /  0mm 0 W/m2
16:57 45.3 °F /  7.4 °C 40.8 °F /  4.9 °C 29.91in /  1012.8hPa WSW 7.0mph /  11.3km/h 13.0mph /  20.9km/h 84% 0.00in /  0mm 0 W/m2
17:02 45.1 °F /  7.3 °C 40.6 °F /  4.8 °C 29.92in /  1013.1hPa WSW 7.0mph /  11.3km/h 12.0mph /  19.3km/h 84% 0.00in /  0mm 0 W/m2
17:07 45.1 °F /  7.3 °C 40.6 °F /  4.8 °C 29.92in /  1013.1hPa WSW 6.0mph /  9.7km/h 10.0mph /  16.1km/h 84% 0.00in /  0mm 0 W/m2
17:12 45.3 °F /  7.4 °C 40.8 °F /  4.9 °C 29.92in /  1013.1hPa WSW 9.0mph /  14.5km/h 12.0mph /  19.3km/h 84% 0.00in /  0mm 0 W/m2
17:17 45.3 °F /  7.4 °C 40.8 °F /  4.9 °C 29.92in /  1013.1hPa WSW 7.0mph /  11.3km/h 11.0mph /  17.7km/h 84% 0.00in /  0mm 0 W/m2
17:22 45.3 °F /  7.4 °C 40.8 °F /  4.9 °C 29.93in /  1013.4hPa West 9.0mph /  14.5km/h 16.0mph /  25.7km/h 84% 0.00in /  0mm 0 W/m2
17:27 45.3 °F /  7.4 °C 40.8 °F /  4.9 °C 29.93in /  1013.4hPa WSW 8.0mph /  12.9km/h 12.0mph /  19.3km/h 84% 0.00in /  0mm 0 W/m2
17:32 45.1 °F /  7.3 °C 40.6 °F /  4.8 °C 29.93in /  1013.4hPa WSW 8.0mph /  12.9km/h 13.0mph /  20.9km/h 84% 0.00in /  0mm 0 W/m2
17:37 45.1 °F /  7.3 °C 40.6 °F /  4.8 °C 29.93in /  1013.4hPa WSW 6.0mph /  9.7km/h 11.0mph /  17.7km/h 84% 0.00in /  0mm 0 W/m2
17:42 45.1 °F /  7.3 °C 40.9 °F /  4.9 °C 29.94in /  1013.8hPa WSW 7.0mph /  11.3km/h 12.0mph /  19.3km/h 85% 0.00in /  0mm 0 W/m2
17:47 45.0 °F /  7.2 °C 40.7 °F /  4.8 °C 29.94in /  1013.8hPa WSW 10.0mph /  16.1km/h 14.0mph /  22.5km/h 85% 0.00in /  0mm 0 W/m2
17:52 45.0 °F /  7.2 °C 40.7 °F /  4.8 °C 29.94in /  1013.8hPa WSW 10.0mph /  16.1km/h 15.0mph /  24.1km/h 85% 0.00in /  0mm 0 W/m2
17:57 45.0 °F /  7.2 °C 40.7 °F /  4.8 °C 29.95in /  1014.1hPa WSW 8.0mph /  12.9km/h 15.0mph /  24.1km/h 85% 0.00in /  0mm 0 W/m2
18:02 45.0 °F /  7.2 °C 40.7 °F /  4.8 °C 29.95in /  1014.1hPa WSW 9.0mph /  14.5km/h 14.0mph /  22.5km/h 85% 0.00in /  0mm 0 W/m2
18:07 45.0 °F /  7.2 °C 40.4 °F /  4.7 °C 29.94in /  1013.8hPa WSW 11.0mph /  17.7km/h 20.0mph /  32.2km/h 84% 0.00in /  0mm 0 W/m2
18:12 45.0 °F /  7.2 °C 40.4 °F /  4.7 °C 29.94in /  1013.8hPa WSW 11.0mph /  17.7km/h 19.0mph /  30.6km/h 84% 0.00in /  0mm 0 W/m2
18:17 45.0 °F /  7.2 °C 40.4 °F /  4.7 °C 29.94in /  1013.8hPa WSW 11.0mph /  17.7km/h 15.0mph /  24.1km/h 84% 0.00in /  0mm 0 W/m2
18:22 45.0 °F /  7.2 °C 40.4 °F /  4.7 °C 29.94in /  1013.8hPa WSW 12.0mph /  19.3km/h 18.0mph /  29km/h 84% 0.00in /  0mm 0 W/m2
18:27 44.8 °F /  7.1 °C 40.2 °F /  4.6 °C 29.94in /  1013.8hPa West 9.0mph /  14.5km/h 14.0mph /  22.5km/h 84% 0.00in /  0mm 0 W/m2
18:32 44.6 °F /  7 °C 40.1 °F /  4.5 °C 29.95in /  1014.1hPa WSW 7.0mph /  11.3km/h 13.0mph /  20.9km/h 84% 0.00in /  0mm 0 W/m2
18:37 44.6 °F /  7 °C 40.1 °F /  4.5 °C 29.95in /  1014.1hPa WSW 9.0mph /  14.5km/h 15.0mph /  24.1km/h 84% 0.00in /  0mm 0 W/m2
18:42 44.6 °F /  7 °C 40.1 °F /  4.5 °C 29.95in /  1014.1hPa WSW 9.0mph /  14.5km/h 13.0mph /  20.9km/h 84% 0.00in /  0mm 0 W/m2
18:48 44.6 °F /  7 °C 40.1 °F /  4.5 °C 29.95in /  1014.1hPa West 6.0mph /  9.7km/h 10.0mph /  16.1km/h 84% 0.00in /  0mm 0 W/m2
18:53 44.6 °F /  7 °C 40.1 °F /  4.5 °C 29.95in /  1014.1hPa WSW 7.0mph /  11.3km/h 13.0mph /  20.9km/h 84% 0.00in /  0mm 0 W/m2
18:58 44.4 °F /  6.9 °C 39.6 °F /  4.2 °C 29.95in /  1014.1hPa WSW 8.0mph /  12.9km/h 12.0mph /  19.3km/h 83% 0.00in /  0mm 0 W/m2
19:03 44.4 °F /  6.9 °C 39.6 °F /  4.2 °C 29.95in /  1014.1hPa WSW 7.0mph /  11.3km/h 11.0mph /  17.7km/h 83% 0.00in /  0mm 0 W/m2
19:08 44.2 °F /  6.8 °C 39.4 °F /  4.1 °C 29.95in /  1014.1hPa WSW 8.0mph /  12.9km/h 13.0mph /  20.9km/h 83% 0.00in /  0mm 0 W/m2
19:13 44.2 °F /  6.8 °C 39.4 °F /  4.1 °C 29.95in /  1014.1hPa West 9.0mph /  14.5km/h 14.0mph /  22.5km/h 83% 0.00in /  0mm 0 W/m2
19:18 44.1 °F /  6.7 °C 39.2 °F /  4 °C 29.95in /  1014.1hPa WSW 9.0mph /  14.5km/h 14.0mph /  22.5km/h 83% 0.00in /  0mm 0 W/m2
19:23 44.1 °F /  6.7 °C 39.2 °F /  4 °C 29.95in /  1014.1hPa WSW 11.0mph /  17.7km/h 20.0mph /  32.2km/h 83% 0.00in /  0mm 0 W/m2
19:28 44.1 °F /  6.7 °C 39.2 °F /  4 °C 29.95in /  1014.1hPa West 12.0mph /  19.3km/h 20.0mph /  32.2km/h 83% 0.00in /  0mm 0 W/m2
19:33 43.9 °F /  6.6 °C 39.1 °F /  3.9 °C 29.95in /  1014.1hPa WSW 10.0mph /  16.1km/h 15.0mph /  24.1km/h 83% 0.00in /  0mm 0 W/m2
19:38 43.9 °F /  6.6 °C 39.1 °F /  3.9 °C 29.95in /  1014.1hPa West 12.0mph /  19.3km/h 18.0mph /  29km/h 83% 0.00in /  0mm 0 W/m2
19:43 43.9 °F /  6.6 °C 39.1 °F /  3.9 °C 29.94in /  1013.8hPa West 11.0mph /  17.7km/h 18.0mph /  29km/h 83% 0.00in /  0mm 0 W/m2
19:48 43.9 °F /  6.6 °C 39.1 °F /  3.9 °C 29.95in /  1014.1hPa West 12.0mph /  19.3km/h 18.0mph /  29km/h 83% 0.00in /  0mm 0 W/m2
19:53 43.7 °F /  6.5 °C 38.9 °F /  3.8 °C 29.95in /  1014.1hPa West 10.0mph /  16.1km/h 15.0mph /  24.1km/h 83% 0.00in /  0mm 0 W/m2
19:58 43.7 °F /  6.5 °C 38.9 °F /  3.8 °C 29.95in /  1014.1hPa West 11.0mph /  17.7km/h 19.0mph /  30.6km/h 83% 0.00in /  0mm 0 W/m2
20:03 43.5 °F /  6.4 °C 38.7 °F /  3.7 °C 29.95in /  1014.1hPa West 9.0mph /  14.5km/h 14.0mph /  22.5km/h 83% 0.00in /  0mm 0 W/m2
20:08 43.5 °F /  6.4 °C 38.7 °F /  3.7 °C 29.94in /  1013.8hPa West 9.0mph /  14.5km/h 13.0mph /  20.9km/h 83% 0.00in /  0mm 0 W/m2
20:13 43.7 °F /  6.5 °C 38.9 °F /  3.8 °C 29.94in /  1013.8hPa West 11.0mph /  17.7km/h 19.0mph /  30.6km/h 83% 0.00in /  0mm 0 W/m2
20:18 43.7 °F /  6.5 °C 38.6 °F /  3.7 °C 29.94in /  1013.8hPa West 9.0mph /  14.5km/h 14.0mph /  22.5km/h 82% 0.00in /  0mm 0 W/m2
20:23 43.7 °F /  6.5 °C 38.9 °F /  3.8 °C 29.95in /  1014.1hPa West 11.0mph /  17.7km/h 21.0mph /  33.8km/h 83% 0.00in /  0mm 0 W/m2
20:28 43.9 °F /  6.6 °C 39.1 °F /  3.9 °C 29.94in /  1013.8hPa West 11.0mph /  17.7km/h 16.0mph /  25.7km/h 83% 0.00in /  0mm 0 W/m2
20:33 43.9 °F /  6.6 °C 39.1 °F /  3.9 °C 29.94in /  1013.8hPa West 11.0mph /  17.7km/h 19.0mph /  30.6km/h 83% 0.00in /  0mm 0 W/m2
20:38 43.7 °F /  6.5 °C 38.9 °F /  3.8 °C 29.94in /  1013.8hPa West 10.0mph /  16.1km/h 18.0mph /  29km/h 83% 0.00in /  0mm 0 W/m2
20:43 43.7 °F /  6.5 °C 39.2 °F /  4 °C 29.93in /  1013.4hPa West 11.0mph /  17.7km/h 16.0mph /  25.7km/h 84% 0.00in /  0mm 0 W/m2
20:48 43.7 °F /  6.5 °C 39.2 °F /  4 °C 29.94in /  1013.8hPa WSW 10.0mph /  16.1km/h 14.0mph /  22.5km/h 84% 0.00in /  0mm 0 W/m2
20:53 43.9 °F /  6.6 °C 39.4 °F /  4.1 °C 29.94in /  1013.8hPa West 10.0mph /  16.1km/h 16.0mph /  25.7km/h 84% 0.00in /  0mm 0 W/m2
20:58 43.9 °F /  6.6 °C 39.4 °F /  4.1 °C 29.94in /  1013.8hPa West 9.0mph /  14.5km/h 14.0mph /  22.5km/h 84% 0.00in /  0mm 0 W/m2
21:04 43.9 °F /  6.6 °C 39.4 °F /  4.1 °C 29.94in /  1013.8hPa West 10.0mph /  16.1km/h 16.0mph /  25.7km/h 84% 0.00in /  0mm 0 W/m2
21:09 43.9 °F /  6.6 °C 39.1 °F /  3.9 °C 29.94in /  1013.8hPa West 10.0mph /  16.1km/h 15.0mph /  24.1km/h 83% 0.00in /  0mm 0 W/m2
21:14 43.9 °F /  6.6 °C 39.1 °F /  3.9 °C 29.93in /  1013.4hPa West 7.0mph /  11.3km/h 13.0mph /  20.9km/h 83% 0.00in /  0mm 0 W/m2
21:19 43.9 °F /  6.6 °C 39.1 °F /  3.9 °C 29.93in /  1013.4hPa West 9.0mph /  14.5km/h 16.0mph /  25.7km/h 83% 0.00in /  0mm 0 W/m2
21:24 43.9 °F /  6.6 °C 39.1 °F /  3.9 °C 29.94in /  1013.8hPa West 9.0mph /  14.5km/h 13.0mph /  20.9km/h 83% 0.00in /  0mm 0 W/m2
21:29 43.9 °F /  6.6 °C 39.1 °F /  3.9 °C 29.94in /  1013.8hPa West 12.0mph /  19.3km/h 20.0mph /  32.2km/h 83% 0.00in /  0mm 0 W/m2
21:34 44.1 °F /  6.7 °C 39.2 °F /  4 °C 29.94in /  1013.8hPa West 7.0mph /  11.3km/h 11.0mph /  17.7km/h 83% 0.00in /  0mm 0 W/m2
21:39 44.1 °F /  6.7 °C 39.2 °F /  4 °C 29.94in /  1013.8hPa West 9.0mph /  14.5km/h 11.0mph /  17.7km/h 83% 0.00in /  0mm 0 W/m2
21:44 44.1 °F /  6.7 °C 39.2 °F /  4 °C 29.94in /  1013.8hPa West 3.0mph /  4.8km/h 7.0mph /  11.3km/h 83% 0.00in /  0mm 0 W/m2
21:49 44.1 °F /  6.7 °C 39.2 °F /  4 °C 29.94in /  1013.8hPa West 6.0mph /  9.7km/h 11.0mph /  17.7km/h 83% 0.00in /  0mm 0 W/m2
21:54 44.1 °F /  6.7 °C 39.2 °F /  4 °C 29.95in /  1014.1hPa WSW 3.0mph /  4.8km/h 7.0mph /  11.3km/h 83% 0.00in /  0mm 0 W/m2
21:59 44.1 °F /  6.7 °C 39.2 °F /  4 °C 29.95in /  1014.1hPa SW 1.0mph /  1.6km/h 4.0mph /  6.4km/h 83% 0.00in /  0mm 0 W/m2
22:04 44.1 °F /  6.7 °C 39.2 °F /  4 °C 29.95in /  1014.1hPa SSW 4.0mph /  6.4km/h 7.0mph /  11.3km/h 83% 0.00in /  0mm 0 W/m2
22:09 44.2 °F /  6.8 °C 39.4 °F /  4.1 °C 29.95in /  1014.1hPa Calm   4.0mph /  6.4km/h 83% 0.00in /  0mm 0 W/m2
22:14 44.2 °F /  6.8 °C 39.4 °F /  4.1 °C 29.95in /  1014.1hPa SW 3.0mph /  4.8km/h 6.0mph /  9.7km/h 83% 0.00in /  0mm 0 W/m2
22:19 44.2 °F /  6.8 °C 39.1 °F /  3.9 °C 29.94in /  1013.8hPa Calm     82% 0.00in /  0mm 0 W/m2
22:24 44.2 °F /  6.8 °C 39.4 °F /  4.1 °C 29.94in /  1013.8hPa SW 4.0mph /  6.4km/h 8.0mph /  12.9km/h 83% 0.00in /  0mm 0 W/m2
22:29 44.2 °F /  6.8 °C 39.1 °F /  3.9 °C 29.94in /  1013.8hPa Calm   2.0mph /  3.2km/h 82% 0.00in /  0mm 0 W/m2
22:34 44.1 °F /  6.7 °C 38.9 °F /  3.8 °C 29.93in /  1013.4hPa ESE 1.0mph /  1.6km/h 5.0mph /  8km/h 82% 0.00in /  0mm 0 W/m2
22:39 44.1 °F /  6.7 °C 38.9 °F /  3.8 °C 29.94in /  1013.8hPa West 3.0mph /  4.8km/h 7.0mph /  11.3km/h 82% 0.00in /  0mm 0 W/m2
22:44 44.2 °F /  6.8 °C 38.8 °F /  3.8 °C 29.93in /  1013.4hPa WSW 6.0mph /  9.7km/h 11.0mph /  17.7km/h 81% 0.00in /  0mm 0 W/m2
22:49 44.4 °F /  6.9 °C 38.3 °F /  3.5 °C 29.93in /  1013.4hPa WSW 5.0mph /  8km/h 11.0mph /  17.7km/h 79% 0.00in /  0mm 0 W/m2
22:54 44.8 °F /  7.1 °C 38.3 °F /  3.5 °C 29.93in /  1013.4hPa WSW 5.0mph /  8km/h 9.0mph /  14.5km/h 78% 0.00in /  0mm 0 W/m2
22:59 45.0 °F /  7.2 °C 38.2 °F /  3.4 °C 29.93in /  1013.4hPa West 12.0mph /  19.3km/h 20.0mph /  32.2km/h 77% 0.00in /  0mm 0 W/m2
23:04 45.3 °F /  7.4 °C 38.2 °F /  3.4 °C 29.93in /  1013.4hPa West 9.0mph /  14.5km/h 13.0mph /  20.9km/h 76% 0.00in /  0mm 0 W/m2
23:09 45.5 °F /  7.5 °C 38.0 °F /  3.3 °C 29.93in /  1013.4hPa West 7.0mph /  11.3km/h 10.0mph /  16.1km/h 75% 0.00in /  0mm 0 W/m2
23:14 45.5 °F /  7.5 °C 38.0 °F /  3.3 °C 29.93in /  1013.4hPa West 8.0mph /  12.9km/h 13.0mph /  20.9km/h 75% 0.00in /  0mm 0 W/m2
23:19 45.5 °F /  7.5 °C 38.0 °F /  3.3 °C 29.93in /  1013.4hPa West 8.0mph /  12.9km/h 15.0mph /  24.1km/h 75% 0.00in /  0mm 0 W/m2
23:24 45.7 °F /  7.6 °C 38.2 °F /  3.4 °C 29.94in /  1013.8hPa WNW 4.0mph /  6.4km/h 9.0mph /  14.5km/h 75% 0.00in /  0mm 0 W/m2
23:29 45.5 °F /  7.5 °C 38.0 °F /  3.3 °C 29.94in /  1013.8hPa ESE 2.0mph /  3.2km/h 5.0mph /  8km/h 75% 0.00in /  0mm 0 W/m2
23:35 45.1 °F /  7.3 °C 37.7 °F /  3.2 °C 29.93in /  1013.4hPa South 1.0mph /  1.6km/h 2.0mph /  3.2km/h 75% 0.00in /  0mm 0 W/m2
23:40 45.0 °F /  7.2 °C 37.8 °F /  3.2 °C 29.94in /  1013.8hPa SW 3.0mph /  4.8km/h 9.0mph /  14.5km/h 76% 0.00in /  0mm 0 W/m2
23:45 45.0 °F /  7.2 °C 37.8 °F /  3.2 °C 29.94in /  1013.8hPa East 3.0mph /  4.8km/h 6.0mph /  9.7km/h 76% 0.00in /  0mm 0 W/m2
23:50 44.6 °F /  7 °C 37.5 °F /  3.1 °C 29.94in /  1013.8hPa ENE 3.0mph /  4.8km/h 5.0mph /  8km/h 76% 0.00in /  0mm 0 W/m2
23:55 44.4 °F /  6.9 °C 37.7 °F /  3.2 °C 29.93in /  1013.4hPa ENE 5.0mph /  8km/h 7.0mph /  11.3km/h 77% 0.00in /  0mm 0 W/m2
Delerius Weather

Data updates at regular intervals.